sensor_id;sensor_type;location;lat;lon;timestamp;pressure;altitude;pressure_sealevel;temperature;humidity
12211;BME280;6168;42.658;23.298;2023-09-08T00:01:40;61110.22;;;-139.92;100.00
12211;BME280;6168;42.658;23.298;2023-09-08T00:04:06;61114.38;;;-139.92;100.00
12211;BME280;6168;42.658;23.298;2023-09-08T00:06:33;61114.38;;;-139.92;100.00
12211;BME280;6168;42.658;23.298;2023-09-08T00:09:02;61120.63;;;-139.92;100.00
12211;BME280;6168;42.658;23.298;2023-09-08T00:11:29;61126.88;;;-139.92;100.00
12211;BME280;6168;42.658;23.298;2023-09-08T00:13:55;61118.53;;;-139.92;100.00
12211;BME280;6168;42.658;23.298;2023-09-08T00:16:22;61131.03;;;-139.92;100.00
12211;BME280;6168;42.658;23.298;2023-09-08T00:18:49;61118.53;;;-139.92;100.00
12211;BME280;6168;42.658;23.298;2023-09-08T00:21:16;61128.94;;;-139.92;100.00
12211;BME280;6168;42.658;23.298;2023-09-08T00:23:42;61118.53;;;-139.92;100.00
12211;BME280;6168;42.658;23.298;2023-09-08T00:26:10;61116.47;;;-139.92;100.00
12211;BME280;6168;42.658;23.298;2023-09-08T00:28:36;61145.59;;;-139.92;100.00
12211;BME280;6168;42.658;23.298;2023-09-08T00:31:03;61162.22;;;-139.92;100.00
12211;BME280;6168;42.658;23.298;2023-09-08T00:33:30;61143.50;;;-139.92;100.00
12211;BME280;6168;42.658;23.298;2023-09-08T00:35:56;61099.81;;;-139.92;100.00
12211;BME280;6168;42.658;23.298;2023-09-08T00:38:23;61145.59;;;-139.92;100.00
12211;BME280;6168;42.658;23.298;2023-09-08T00:40:50;61128.94;;;-139.92;100.00
12211;BME280;6168;42.658;23.298;2023-09-08T00:43:18;61126.88;;;-139.92;100.00
12211;BME280;6168;42.658;23.298;2023-09-08T00:45:45;61124.78;;;-139.92;100.00
12211;BME280;6168;42.658;23.298;2023-09-08T00:48:11;61131.03;;;-139.92;100.00
12211;BME280;6168;42.658;23.298;2023-09-08T00:50:39;61118.53;;;-139.92;100.00
12211;BME280;6168;42.658;23.298;2023-09-08T00:53:06;61114.38;;;-139.92;100.00
12211;BME280;6168;42.658;23.298;2023-09-08T00:55:34;61131.03;;;-139.92;100.00
12211;BME280;6168;42.658;23.298;2023-09-08T00:58:00;61122.69;;;-139.92;100.00
12211;BME280;6168;42.658;23.298;2023-09-08T01:00:29;61106.06;;;-139.92;100.00
12211;BME280;6168;42.658;23.298;2023-09-08T01:02:57;61110.22;;;-139.92;100.00
12211;BME280;6168;42.658;23.298;2023-09-08T01:05:23;61122.69;;;-139.92;100.00
12211;BME280;6168;42.658;23.298;2023-09-08T01:07:50;61110.22;;;-139.92;100.00
12211;BME280;6168;42.658;23.298;2023-09-08T01:10:17;61139.34;;;-139.92;100.00
12211;BME280;6168;42.658;23.298;2023-09-08T01:12:44;61108.13;;;-139.92;100.00
12211;BME280;6168;42.658;23.298;2023-09-08T01:15:10;61106.06;;;-139.92;100.00
12211;BME280;6168;42.658;23.298;2023-09-08T01:17:38;61122.69;;;-139.92;100.00
12211;BME280;6168;42.658;23.298;2023-09-08T01:20:06;61112.31;;;-139.92;100.00
12211;BME280;6168;42.658;23.298;2023-09-08T01:22:42;61126.88;;;-139.92;100.00
12211;BME280;6168;42.658;23.298;2023-09-08T01:25:14;61116.47;;;-139.92;100.00
12211;BME280;6168;42.658;23.298;2023-09-08T01:27:45;61124.78;;;-139.92;100.00
12211;BME280;6168;42.658;23.298;2023-09-08T01:30:13;61122.69;;;-139.92;100.00
12211;BME280;6168;42.658;23.298;2023-09-08T01:32:40;61122.69;;;-139.92;100.00
12211;BME280;6168;42.658;23.298;2023-09-08T01:35:07;61139.34;;;-139.92;100.00
12211;BME280;6168;42.658;23.298;2023-09-08T01:37:34;61122.69;;;-139.92;100.00
12211;BME280;6168;42.658;23.298;2023-09-08T01:40:00;61153.91;;;-139.92;100.00
12211;BME280;6168;42.658;23.298;2023-09-08T01:42:28;61131.03;;;-139.92;100.00
12211;BME280;6168;42.658;23.298;2023-09-08T01:44:55;61143.50;;;-139.92;100.00
12211;BME280;6168;42.658;23.298;2023-09-08T01:47:22;61151.81;;;-139.92;100.00
12211;BME280;6168;42.658;23.298;2023-09-08T01:49:48;61137.25;;;-139.92;100.00
12211;BME280;6168;42.658;23.298;2023-09-08T01:52:15;61126.88;;;-139.92;100.00
12211;BME280;6168;42.658;23.298;2023-09-08T01:54:41;61131.03;;;-139.92;100.00
12211;BME280;6168;42.658;23.298;2023-09-08T01:57:08;61141.44;;;-139.92;100.00
12211;BME280;6168;42.658;23.298;2023-09-08T01:59:36;61143.50;;;-139.92;100.00
12211;BME280;6168;42.658;23.298;2023-09-08T02:02:03;61158.06;;;-139.92;100.00
12211;BME280;6168;42.658;23.298;2023-09-08T02:04:30;61133.09;;;-139.92;100.00
12211;BME280;6168;42.658;23.298;2023-09-08T02:06:56;61131.03;;;-139.92;100.00
12211;BME280;6168;42.658;23.298;2023-09-08T02:09:29;61124.78;;;-139.92;100.00
12211;BME280;6168;42.658;23.298;2023-09-08T02:11:56;61139.34;;;-139.92;100.00
12211;BME280;6168;42.658;23.298;2023-09-08T02:14:23;61133.09;;;-139.92;100.00
12211;BME280;6168;42.658;23.298;2023-09-08T02:16:51;61135.19;;;-139.92;100.00
12211;BME280;6168;42.658;23.298;2023-09-08T02:19:17;61131.03;;;-139.92;100.00
12211;BME280;6168;42.658;23.298;2023-09-08T02:21:44;61133.09;;;-139.92;100.00
12211;BME280;6168;42.658;23.298;2023-09-08T02:24:10;61164.31;;;-139.92;100.00
12211;BME280;6168;42.658;23.298;2023-09-08T02:26:37;61151.81;;;-139.92;100.00
12211;BME280;6168;42.658;23.298;2023-09-08T02:29:04;61160.16;;;-139.92;100.00
12211;BME280;6168;42.658;23.298;2023-09-08T02:31:30;61151.81;;;-139.92;100.00
12211;BME280;6168;42.658;23.298;2023-09-08T02:33:58;61147.66;;;-139.92;100.00
12211;BME280;6168;42.658;23.298;2023-09-08T02:36:25;61158.06;;;-139.92;100.00
12211;BME280;6168;42.658;23.298;2023-09-08T02:38:51;61162.22;;;-139.92;100.00
12211;BME280;6168;42.658;23.298;2023-09-08T02:41:18;61149.75;;;-139.92;100.00
12211;BME280;6168;42.658;23.298;2023-09-08T02:43:45;61143.50;;;-139.92;100.00
12211;BME280;6168;42.658;23.298;2023-09-08T02:46:11;61147.66;;;-139.92;100.00
12211;BME280;6168;42.658;23.298;2023-09-08T02:48:38;61160.16;;;-139.92;100.00
12211;BME280;6168;42.658;23.298;2023-09-08T02:51:06;61160.16;;;-139.92;100.00
12211;BME280;6168;42.658;23.298;2023-09-08T02:53:32;61143.50;;;-139.92;100.00
12211;BME280;6168;42.658;23.298;2023-09-08T02:55:59;61139.34;;;-139.92;100.00
12211;BME280;6168;42.658;23.298;2023-09-08T02:58:28;61164.31;;;-139.92;100.00
12211;BME280;6168;42.658;23.298;2023-09-08T03:00:55;61178.88;;;-139.92;100.00
12211;BME280;6168;42.658;23.298;2023-09-08T03:03:22;61158.06;;;-139.92;100.00
12211;BME280;6168;42.658;23.298;2023-09-08T03:05:48;61166.38;;;-139.92;100.00
12211;BME280;6168;42.658;23.298;2023-09-08T03:08:21;61166.38;;;-139.92;100.00
12211;BME280;6168;42.658;23.298;2023-09-08T03:10:48;61166.38;;;-139.92;100.00
12211;BME280;6168;42.658;23.298;2023-09-08T03:13:15;71272.09;;;-139.92;100.00
12211;BME280;6168;42.658;23.298;2023-09-08T03:15:42;71272.09;;;-139.92;100.00
12211;BME280;6168;42.658;23.298;2023-09-08T03:18:08;61166.38;;;-139.92;100.00
12211;BME280;6168;42.658;23.298;2023-09-08T03:20:35;61166.38;;;-139.92;100.00
12211;BME280;6168;42.658;23.298;2023-09-08T03:23:01;61166.38;;;-139.92;100.00
12211;BME280;6168;42.658;23.298;2023-09-08T03:27:55;58400.47;;;-139.92;100.00
12211;BME280;6168;42.658;23.298;2023-09-08T03:30:22;71272.09;;;-139.92;100.00
12211;BME280;6168;42.658;23.298;2023-09-08T03:32:48;8091.63;;;-139.92;100.00
12211;BME280;6168;42.658;23.298;2023-09-08T03:35:15;71272.09;;;-139.92;100.00
12211;BME280;6168;42.658;23.298;2023-09-08T03:37:41;71272.09;;;-139.92;100.00
12211;BME280;6168;42.658;23.298;2023-09-08T03:40:08;71272.09;;;-139.92;100.00
12211;BME280;6168;42.658;23.298;2023-09-08T03:42:35;71272.09;;;-139.92;100.00
12211;BME280;6168;42.658;23.298;2023-09-08T03:45:04;71272.09;;;-139.92;100.00
12211;BME280;6168;42.658;23.298;2023-09-08T03:47:30;71272.09;;;-139.92;100.00
12211;BME280;6168;42.658;23.298;2023-09-08T03:49:57;71272.09;;;-139.92;100.00
12211;BME280;6168;42.658;23.298;2023-09-08T03:52:24;61166.38;;;-139.92;100.00
12211;BME280;6168;42.658;23.298;2023-09-08T03:54:51;61166.38;;;-139.92;100.00
12211;BME280;6168;42.658;23.298;2023-09-08T03:57:18;61166.38;;;-139.92;100.00
12211;BME280;6168;42.658;23.298;2023-09-08T03:59:44;61166.38;;;-139.92;100.00
12211;BME280;6168;42.658;23.298;2023-09-08T04:02:12;61166.38;;;-139.92;100.00
12211;BME280;6168;42.658;23.298;2023-09-08T04:04:38;61166.38;;;-139.92;100.00
12211;BME280;6168;42.658;23.298;2023-09-08T04:07:05;61166.38;;;-139.92;100.00
12211;BME280;6168;42.658;23.298;2023-09-08T04:09:31;61166.38;;;-139.92;100.00
12211;BME280;6168;42.658;23.298;2023-09-08T04:11:58;71272.09;;;-139.92;100.00
12211;BME280;6168;42.658;23.298;2023-09-08T04:14:24;71272.09;;;-139.92;100.00
12211;BME280;6168;42.658;23.298;2023-09-08T04:16:53;71272.09;;;-139.92;100.00
12211;BME280;6168;42.658;23.298;2023-09-08T04:19:21;71272.09;;;-139.92;100.00
12211;BME280;6168;42.658;23.298;2023-09-08T04:21:48;71272.09;;;-139.92;100.00
12211;BME280;6168;42.658;23.298;2023-09-08T04:24:14;71272.09;;;-139.92;100.00
12211;BME280;6168;42.658;23.298;2023-09-08T04:26:41;71272.09;;;-139.92;100.00
12211;BME280;6168;42.658;23.298;2023-09-08T04:29:07;71272.09;;;-139.92;100.00
12211;BME280;6168;42.658;23.298;2023-09-08T04:31:34;71272.09;;;-139.92;100.00
12211;BME280;6168;42.658;23.298;2023-09-08T04:34:01;71272.09;;;-139.92;100.00
12211;BME280;6168;42.658;23.298;2023-09-08T04:36:29;71272.09;;;-139.92;100.00
12211;BME280;6168;42.658;23.298;2023-09-08T04:38:56;71272.09;;;-139.92;100.00
12211;BME280;6168;42.658;23.298;2023-09-08T04:41:22;71272.09;;;-139.92;100.00
12211;BME280;6168;42.658;23.298;2023-09-08T04:43:49;71272.09;;;-139.92;100.00
12211;BME280;6168;42.658;23.298;2023-09-08T04:46:16;71272.09;;;-139.92;100.00
12211;BME280;6168;42.658;23.298;2023-09-08T04:48:43;71272.09;;;-139.92;100.00
12211;BME280;6168;42.658;23.298;2023-09-08T04:51:09;71272.09;;;-139.92;100.00
12211;BME280;6168;42.658;23.298;2023-09-08T04:53:37;71272.09;;;-139.92;100.00
12211;BME280;6168;42.658;23.298;2023-09-08T04:56:04;71272.09;;;-139.92;100.00
12211;BME280;6168;42.658;23.298;2023-09-08T04:58:30;71272.09;;;-139.92;100.00
12211;BME280;6168;42.658;23.298;2023-09-08T05:00:57;71272.09;;;-139.92;100.00
12211;BME280;6168;42.658;23.298;2023-09-08T05:03:23;71272.09;;;-139.92;100.00
12211;BME280;6168;42.658;23.298;2023-09-08T05:05:51;71272.09;;;-139.92;100.00
12211;BME280;6168;42.658;23.298;2023-09-08T05:08:17;71272.09;;;-139.92;100.00
12211;BME280;6168;42.658;23.298;2023-09-08T05:10:45;71272.09;;;-139.92;100.00
12211;BME280;6168;42.658;23.298;2023-09-08T05:13:12;71272.09;;;-139.92;100.00
12211;BME280;6168;42.658;23.298;2023-09-08T05:15:38;71272.09;;;-139.92;100.00
12211;BME280;6168;42.658;23.298;2023-09-08T05:18:07;71272.09;;;-139.92;100.00
12211;BME280;6168;42.658;23.298;2023-09-08T05:20:34;71272.09;;;-139.92;100.00
12211;BME280;6168;42.658;23.298;2023-09-08T07:26:11;60964.59;;;-139.92;80.14
12211;BME280;6168;42.658;23.298;2023-09-08T07:28:38;60985.41;;;-139.92;77.40
12211;BME280;6168;42.658;23.298;2023-09-08T07:31:05;60958.34;;;-139.92;76.45
12211;BME280;6168;42.658;23.298;2023-09-08T07:33:34;60960.44;;;-139.92;76.33
12211;BME280;6168;42.658;23.298;2023-09-08T07:36:03;60935.47;;;-139.92;73.15
12211;BME280;6168;42.658;23.298;2023-09-08T07:38:30;60947.94;;;-139.92;74.51
12211;BME280;6168;42.658;23.298;2023-09-08T07:40:57;60956.28;;;-139.92;71.57
12211;BME280;6168;42.658;23.298;2023-09-08T07:43:26;60920.91;;;-139.92;73.43
12211;BME280;6168;42.658;23.298;2023-09-08T07:45:53;60950.03;;;-139.92;73.42
12211;BME280;6168;42.658;23.298;2023-09-08T07:48:19;60952.13;;;-139.92;72.93
12211;BME280;6168;42.658;23.298;2023-09-08T07:50:46;60941.72;;;-139.92;72.61
12211;BME280;6168;42.658;23.298;2023-09-08T07:53:12;60933.38;;;-139.92;72.70
12211;BME280;6168;42.658;23.298;2023-09-08T07:55:39;60939.63;;;-139.92;71.76
12211;BME280;6168;42.658;23.298;2023-09-08T07:58:05;60916.75;;;-139.92;73.69
12211;BME280;6168;42.658;23.298;2023-09-08T08:00:33;60916.75;;;-139.92;71.45
12211;BME280;6168;42.658;23.298;2023-09-08T08:03:00;60912.59;;;-139.92;69.58
12211;BME280;6168;42.658;23.298;2023-09-08T08:05:26;60931.31;;;-139.92;68.99
12211;BME280;6168;42.658;23.298;2023-09-08T08:07:53;60935.47;;;-139.92;72.04
12211;BME280;6168;42.658;23.298;2023-09-08T08:10:19;60931.31;;;-139.92;73.24
12211;BME280;6168;42.658;23.298;2023-09-08T08:12:46;60937.56;;;-139.92;70.92
12211;BME280;6168;42.658;23.298;2023-09-08T08:15:13;60929.22;;;-139.92;70.95
12211;BME280;6168;42.658;23.298;2023-09-08T08:17:42;60937.56;;;-139.92;71.51
12211;BME280;6168;42.658;23.298;2023-09-08T08:20:10;60933.38;;;-139.92;72.01
12211;BME280;6168;42.658;23.298;2023-09-08T08:22:42;60927.16;;;-139.92;71.96
12211;BME280;6168;42.658;23.298;2023-09-08T08:25:09;60914.66;;;-139.92;71.59
12211;BME280;6168;42.658;23.298;2023-09-08T08:27:36;60947.94;;;-139.92;69.68
12211;BME280;6168;42.658;23.298;2023-09-08T08:30:02;60904.28;;;-139.92;71.17
12211;BME280;6168;42.658;23.298;2023-09-08T08:32:29;60925.06;;;-139.92;67.04
12211;BME280;6168;42.658;23.298;2023-09-08T08:34:57;60908.44;;;-139.92;64.24
12211;BME280;6168;42.658;23.298;2023-09-08T08:37:24;60906.34;;;-139.92;65.23
12211;BME280;6168;42.658;23.298;2023-09-08T08:39:50;60895.94;;;-139.92;66.49
12211;BME280;6168;42.658;23.298;2023-09-08T08:42:17;60881.38;;;-139.92;65.05
12211;BME280;6168;42.658;23.298;2023-09-08T08:44:47;60887.63;;;-139.92;65.22
12211;BME280;6168;42.658;23.298;2023-09-08T08:47:14;60883.47;;;-139.92;64.40
12211;BME280;6168;42.658;23.298;2023-09-08T08:49:42;60873.06;;;-139.92;62.53
12211;BME280;6168;42.658;23.298;2023-09-08T08:52:13;60879.31;;;-139.92;63.07
12211;BME280;6168;42.658;23.298;2023-09-08T08:54:39;60877.22;;;-139.92;63.18
12211;BME280;6168;42.658;23.298;2023-09-08T08:57:06;60864.75;;;-139.92;61.47
12211;BME280;6168;42.658;23.298;2023-09-08T08:59:33;60881.38;;;-139.92;62.25
12211;BME280;6168;42.658;23.298;2023-09-08T09:01:59;60866.81;;;-139.92;59.09
12211;BME280;6168;42.658;23.298;2023-09-08T09:04:27;60860.59;;;-139.92;61.17
12211;BME280;6168;42.658;23.298;2023-09-08T09:06:54;60864.75;;;-139.92;60.67
12211;BME280;6168;42.658;23.298;2023-09-08T09:09:22;60831.47;;;-139.92;58.74
12211;BME280;6168;42.658;23.298;2023-09-08T09:11:49;60850.19;;;-139.92;58.26
12211;BME280;6168;42.658;23.298;2023-09-08T09:14:16;60868.91;;;-139.92;60.80
12211;BME280;6168;42.658;23.298;2023-09-08T09:16:44;60860.59;;;-139.92;59.63
12211;BME280;6168;42.658;23.298;2023-09-08T09:19:17;60868.91;;;-139.92;59.58
12211;BME280;6168;42.658;23.298;2023-09-08T09:21:47;60843.94;;;-139.92;63.46
12211;BME280;6168;42.658;23.298;2023-09-08T09:24:14;60879.31;;;-139.92;60.04
12211;BME280;6168;42.658;23.298;2023-09-08T09:26:42;60868.91;;;-139.92;59.76
12211;BME280;6168;42.658;23.298;2023-09-08T09:29:11;60881.38;;;-139.92;56.90
12211;BME280;6168;42.658;23.298;2023-09-08T09:31:40;60868.91;;;-139.92;56.19
12211;BME280;6168;42.658;23.298;2023-09-08T09:34:06;60868.91;;;-139.92;59.38
12211;BME280;6168;42.658;23.298;2023-09-08T09:36:33;60866.81;;;-139.92;56.87
12211;BME280;6168;42.658;23.298;2023-09-08T09:38:59;60864.75;;;-139.92;56.02
12211;BME280;6168;42.658;23.298;2023-09-08T09:41:27;60862.66;;;-139.92;57.91
12211;BME280;6168;42.658;23.298;2023-09-08T09:43:55;60864.75;;;-139.92;57.28
12211;BME280;6168;42.658;23.298;2023-09-08T09:46:22;60852.25;;;-139.92;57.15
12211;BME280;6168;42.658;23.298;2023-09-08T09:48:50;60856.41;;;-139.92;56.92
12211;BME280;6168;42.658;23.298;2023-09-08T09:51:17;60839.78;;;-139.92;57.73
12211;BME280;6168;42.658;23.298;2023-09-08T09:53:45;60818.97;;;-139.92;57.46
12211;BME280;6168;42.658;23.298;2023-09-08T09:56:13;60854.34;;;-139.92;58.02
12211;BME280;6168;42.658;23.298;2023-09-08T09:58:40;60852.25;;;-139.92;56.07
12211;BME280;6168;42.658;23.298;2023-09-08T10:01:08;60848.09;;;-139.92;57.34
12211;BME280;6168;42.658;23.298;2023-09-08T10:03:36;60866.81;;;-139.92;54.50
12211;BME280;6168;42.658;23.298;2023-09-08T10:06:04;60864.75;;;-139.92;57.59
12211;BME280;6168;42.658;23.298;2023-09-08T10:08:31;60850.19;;;-139.92;58.50
12211;BME280;6168;42.658;23.298;2023-09-08T10:11:01;60864.75;;;-139.92;58.54
12211;BME280;6168;42.658;23.298;2023-09-08T10:13:31;60854.34;;;-139.92;60.04
12211;BME280;6168;42.658;23.298;2023-09-08T10:15:58;60860.59;;;-139.92;57.58
12211;BME280;6168;42.658;23.298;2023-09-08T10:18:26;60860.59;;;-139.92;57.83
12211;BME280;6168;42.658;23.298;2023-09-08T10:20:53;60862.66;;;-139.92;55.39
12211;BME280;6168;42.658;23.298;2023-09-08T10:23:22;60866.81;;;-139.92;56.61
12211;BME280;6168;42.658;23.298;2023-09-08T10:25:50;60866.81;;;-139.92;56.38
12211;BME280;6168;42.658;23.298;2023-09-08T10:28:20;60883.47;;;-139.92;57.49
12211;BME280;6168;42.658;23.298;2023-09-08T10:30:48;60868.91;;;-139.92;59.79
12211;BME280;6168;42.658;23.298;2023-09-08T10:33:15;60852.25;;;-139.92;58.75
12211;BME280;6168;42.658;23.298;2023-09-08T10:35:44;60852.25;;;-139.92;57.36
12211;BME280;6168;42.658;23.298;2023-09-08T10:38:23;60856.41;;;-139.92;57.39
12211;BME280;6168;42.658;23.298;2023-09-08T10:40:50;60864.75;;;-139.92;59.16
12211;BME280;6168;42.658;23.298;2023-09-08T10:43:17;60839.78;;;-139.92;57.73
12211;BME280;6168;42.658;23.298;2023-09-08T10:45:45;60843.94;;;-139.92;58.87
12211;BME280;6168;42.658;23.298;2023-09-08T10:48:12;60860.59;;;-139.92;59.33
12211;BME280;6168;42.658;23.298;2023-09-08T10:50:41;60856.41;;;-139.92;58.84
12211;BME280;6168;42.658;23.298;2023-09-08T10:53:10;60848.09;;;-139.92;59.43
12211;BME280;6168;42.658;23.298;2023-09-08T10:55:44;60839.78;;;-139.92;60.28
12211;BME280;6168;42.658;23.298;2023-09-08T10:58:28;60835.63;;;-139.92;59.05
12211;BME280;6168;42.658;23.298;2023-09-08T11:00:58;60827.31;;;-139.92;57.85
12211;BME280;6168;42.658;23.298;2023-09-08T11:03:27;60837.69;;;-139.92;57.09
12211;BME280;6168;42.658;23.298;2023-09-08T11:05:54;60839.78;;;-139.92;58.43
12211;BME280;6168;42.658;23.298;2023-09-08T11:08:22;60846.03;;;-139.92;57.21
12211;BME280;6168;42.658;23.298;2023-09-08T11:10:49;60864.75;;;-139.92;59.50
12211;BME280;6168;42.658;23.298;2023-09-08T11:13:16;60854.34;;;-139.92;60.87
12211;BME280;6168;42.658;23.298;2023-09-08T11:15:43;60860.59;;;-139.92;58.30
12211;BME280;6168;42.658;23.298;2023-09-08T11:18:10;60860.59;;;-139.92;59.88
12211;BME280;6168;42.658;23.298;2023-09-08T11:20:36;60866.81;;;-139.92;60.41
12211;BME280;6168;42.658;23.298;2023-09-08T11:23:03;60866.81;;;-139.92;59.86
12211;BME280;6168;42.658;23.298;2023-09-08T11:25:32;60856.41;;;-139.92;61.04
12211;BME280;6168;42.658;23.298;2023-09-08T11:27:59;60864.75;;;-139.92;58.88
12211;BME280;6168;42.658;23.298;2023-09-08T11:30:27;60875.16;;;-139.92;59.40
12211;BME280;6168;42.658;23.298;2023-09-08T11:32:53;60875.16;;;-139.92;60.74
12211;BME280;6168;42.658;23.298;2023-09-08T11:35:26;60854.34;;;-139.92;60.44
12211;BME280;6168;42.658;23.298;2023-09-08T11:37:53;60858.50;;;-139.92;59.88
12211;BME280;6168;42.658;23.298;2023-09-08T11:40:25;60858.50;;;-139.92;60.87
12211;BME280;6168;42.658;23.298;2023-09-08T11:42:53;60868.91;;;-139.92;61.92
12211;BME280;6168;42.658;23.298;2023-09-08T11:45:20;60856.41;;;-139.92;61.25
12211;BME280;6168;42.658;23.298;2023-09-08T11:47:48;60839.78;;;-139.92;60.12
12211;BME280;6168;42.658;23.298;2023-09-08T11:50:15;60831.47;;;-139.92;59.63
12211;BME280;6168;42.658;23.298;2023-09-08T11:52:43;60814.81;;;-139.92;63.38
12211;BME280;6168;42.658;23.298;2023-09-08T11:55:10;60810.66;;;-139.92;56.49
12211;BME280;6168;42.658;23.298;2023-09-08T11:57:37;60810.66;;;-139.92;58.28
12211;BME280;6168;42.658;23.298;2023-09-08T12:00:07;60808.56;;;-139.92;57.03
12211;BME280;6168;42.658;23.298;2023-09-08T12:02:36;60777.38;;;-139.92;55.27
12211;BME280;6168;42.658;23.298;2023-09-08T12:05:02;60804.41;;;-139.92;54.51
12211;BME280;6168;42.658;23.298;2023-09-08T12:07:29;60810.66;;;-139.92;54.16
12211;BME280;6168;42.658;23.298;2023-09-08T12:09:56;60785.69;;;-139.92;56.41
12211;BME280;6168;42.658;23.298;2023-09-08T12:12:25;60802.34;;;-139.92;55.54
12211;BME280;6168;42.658;23.298;2023-09-08T12:14:52;60800.25;;;-139.92;55.43
12211;BME280;6168;42.658;23.298;2023-09-08T12:17:20;60794.00;;;-139.92;54.50
12211;BME280;6168;42.658;23.298;2023-09-08T12:19:49;60812.75;;;-139.92;53.28
12211;BME280;6168;42.658;23.298;2023-09-08T12:22:16;60818.97;;;-139.92;55.12
12211;BME280;6168;42.658;23.298;2023-09-08T12:24:47;60839.78;;;-139.92;55.58
12211;BME280;6168;42.658;23.298;2023-09-08T12:27:14;60816.91;;;-139.92;55.00
12211;BME280;6168;42.658;23.298;2023-09-08T12:29:41;60783.63;;;-139.92;55.10
12211;BME280;6168;42.658;23.298;2023-09-08T12:32:09;60781.53;;;-139.92;54.78
12211;BME280;6168;42.658;23.298;2023-09-08T12:34:37;60787.78;;;-139.92;53.76
12211;BME280;6168;42.658;23.298;2023-09-08T12:37:05;60764.91;;;-139.92;52.26
12211;BME280;6168;42.658;23.298;2023-09-08T12:39:32;60781.53;;;-139.92;52.54
12211;BME280;6168;42.658;23.298;2023-09-08T12:41:59;60764.91;;;-139.92;52.00
12211;BME280;6168;42.658;23.298;2023-09-08T12:44:26;60756.56;;;-139.92;52.29
12211;BME280;6168;42.658;23.298;2023-09-08T12:46:53;60794.00;;;-139.92;50.13
12211;BME280;6168;42.658;23.298;2023-09-08T12:49:19;60777.38;;;-139.92;50.91
12211;BME280;6168;42.658;23.298;2023-09-08T12:51:47;60781.53;;;-139.92;51.81
12211;BME280;6168;42.658;23.298;2023-09-08T12:54:14;60771.13;;;-139.92;51.16
12211;BME280;6168;42.658;23.298;2023-09-08T12:56:41;60773.22;;;-139.92;50.19
12211;BME280;6168;42.658;23.298;2023-09-08T12:59:07;60773.22;;;-139.92;49.40
12211;BME280;6168;42.658;23.298;2023-09-08T13:01:34;60746.19;;;-139.92;50.00
12211;BME280;6168;42.658;23.298;2023-09-08T13:04:00;60756.56;;;-139.92;48.87
12211;BME280;6168;42.658;23.298;2023-09-08T13:06:27;60750.34;;;-139.92;47.14
12211;BME280;6168;42.658;23.298;2023-09-08T13:08:55;60760.72;;;-139.92;48.05
12211;BME280;6168;42.658;23.298;2023-09-08T13:11:23;60760.72;;;-139.92;48.03
12211;BME280;6168;42.658;23.298;2023-09-08T13:13:50;60771.13;;;-139.92;49.94
12211;BME280;6168;42.658;23.298;2023-09-08T13:16:17;60789.84;;;-139.92;51.50
12211;BME280;6168;42.658;23.298;2023-09-08T13:18:43;60766.97;;;-139.92;50.55
12211;BME280;6168;42.658;23.298;2023-09-08T13:21:10;60769.06;;;-139.92;50.03
12211;BME280;6168;42.658;23.298;2023-09-08T13:23:37;60806.50;;;-139.92;50.12
12211;BME280;6168;42.658;23.298;2023-09-08T13:26:04;60781.53;;;-139.92;49.56
12211;BME280;6168;42.658;23.298;2023-09-08T13:28:31;60781.53;;;-139.92;47.91
12211;BME280;6168;42.658;23.298;2023-09-08T13:30:58;60775.28;;;-139.92;50.36
12211;BME280;6168;42.658;23.298;2023-09-08T13:33:24;60777.38;;;-139.92;50.25
12211;BME280;6168;42.658;23.298;2023-09-08T13:35:51;60764.91;;;-139.92;48.79
12211;BME280;6168;42.658;23.298;2023-09-08T13:38:18;60794.00;;;-139.92;49.41
12211;BME280;6168;42.658;23.298;2023-09-08T13:40:44;60769.06;;;-139.92;50.19
12211;BME280;6168;42.658;23.298;2023-09-08T13:43:12;60783.63;;;-139.92;48.72
12211;BME280;6168;42.658;23.298;2023-09-08T13:45:39;60802.34;;;-139.92;48.73
12211;BME280;6168;42.658;23.298;2023-09-08T13:48:07;60777.38;;;-139.92;49.17
12211;BME280;6168;42.658;23.298;2023-09-08T13:50:34;60796.09;;;-139.92;49.53
12211;BME280;6168;42.658;23.298;2023-09-08T13:53:01;60783.63;;;-139.92;49.53
12211;BME280;6168;42.658;23.298;2023-09-08T13:55:27;60758.66;;;-139.92;48.86
12211;BME280;6168;42.658;23.298;2023-09-08T13:57:54;60769.06;;;-139.92;47.31
12211;BME280;6168;42.658;23.298;2023-09-08T14:00:22;60773.22;;;-139.92;47.36
12211;BME280;6168;42.658;23.298;2023-09-08T14:02:48;60777.38;;;-139.92;47.09
12211;BME280;6168;42.658;23.298;2023-09-08T14:05:15;60785.69;;;-139.92;47.61
12211;BME280;6168;42.658;23.298;2023-09-08T14:07:42;60756.56;;;-139.92;48.08
12211;BME280;6168;42.658;23.298;2023-09-08T14:10:09;60773.22;;;-139.92;48.68
12211;BME280;6168;42.658;23.298;2023-09-08T14:12:35;60798.19;;;-139.92;47.14
12211;BME280;6168;42.658;23.298;2023-09-08T14:15:02;60794.00;;;-139.92;47.84
12211;BME280;6168;42.658;23.298;2023-09-08T14:17:30;60789.84;;;-139.92;48.23
12211;BME280;6168;42.658;23.298;2023-09-08T14:19:57;60794.00;;;-139.92;48.02
12211;BME280;6168;42.658;23.298;2023-09-08T14:22:23;60775.28;;;-139.92;49.26
12211;BME280;6168;42.658;23.298;2023-09-08T14:24:51;60789.84;;;-139.92;48.78
12211;BME280;6168;42.658;23.298;2023-09-08T14:27:18;60781.53;;;-139.92;49.05
12211;BME280;6168;42.658;23.298;2023-09-08T14:29:45;60808.56;;;-139.92;49.19
12211;BME280;6168;42.658;23.298;2023-09-08T14:32:11;60794.00;;;-139.92;47.99
12211;BME280;6168;42.658;23.298;2023-09-08T14:34:39;60808.56;;;-139.92;50.27
12211;BME280;6168;42.658;23.298;2023-09-08T14:37:06;60812.75;;;-139.92;48.85
12211;BME280;6168;42.658;23.298;2023-09-08T14:39:33;60816.91;;;-139.92;49.50
12211;BME280;6168;42.658;23.298;2023-09-08T14:41:59;60814.81;;;-139.92;49.51